Salida, California
Current Conditions -  °F | °C
As of 8:53 PM on Thursday 30 Oct 2014 (Local Time) from KMOD Reporting Station
Clear Clear  
Wind Chill: 63°   Ceiling: Unl
Heat Index: 63°   Visibility: 8mi
Dew Point: 51°   Wind: 0mph
Humidity: 65%   Direction: NA
Pressure: 29.86"   Gusts: NA
Location:  37.71°N, 121.09°W
Report Text: KMOD 310353Z AUTO 00000KT 8SM CLR 17/11 A2986 RMK AO2 SLP112 T01720106
Loading
Personal Weather Stations






























Interactive Weather Map
Tropical Storm Tracking
New forecast layout! Learn more

10-Day Weather Forecast

Advertisements
Track Severe Weather on mobile